Time,TemperatureF,DewpointF,PressureIn,WindDirection,WindDirectionDegrees,WindSpeedMPH,WindSpeedGustMPH,Humidity,HourlyPrecipIn,Conditions,Clouds,dailyrainin,SoftwareType,DateUTC
2013-01-02 00:05:00,18.6,14.3,29.24,NNW,327,3.0,3.0,83,0.00,,,0.00,Wunderground v.1.15,2013-01-02 05:05:00,
2013-01-02 00:10:00,18.7,14.4,29.23,WNW,292,4.0,4.0,83,0.00,,,0.00,Wunderground v.1.15,2013-01-02 05:10:00,
2013-01-02 00:15:00,18.8,14.5,29.23,NW,317,4.0,4.0,83,0.00,,,0.00,Wunderground v.1.15,2013-01-02 05:15:00,
2013-01-02 00:20:00,18.9,14.6,29.23,NW,320,4.0,4.0,83,0.00,,,0.00,Wunderground v.1.15,2013-01-02 05:20:00,
2013-01-02 00:25:00,19.1,14.8,29.23,NW,313,3.0,5.0,83,0.00,,,0.00,Wunderground v.1.15,2013-01-02 05:25:00,
2013-01-02 00:30:00,19.2,14.9,29.23,NW,320,3.0,3.0,83,0.00,,,0.00,Wunderground v.1.15,2013-01-02 05:30:00,
2013-01-02 00:35:00,19.2,14.6,29.23,NW,304,3.0,3.0,82,0.00,,,0.00,Wunderground v.1.15,2013-01-02 05:35:00,
2013-01-02 00:45:00,19.3,14.7,29.22,NNW,335,3.0,6.0,82,0.00,,,0.00,Wunderground v.1.15,2013-01-02 05:45:00,
2013-01-02 00:50:00,19.4,14.8,29.22,WNW,294,4.0,4.0,82,0.00,,,0.00,Wunderground v.1.15,2013-01-02 05:50:00,
2013-01-02 00:55:00,19.7,15.1,29.22,NW,306,4.0,4.0,82,0.00,,,0.00,Wunderground v.1.15,2013-01-02 05:55:00,
2013-01-02 01:00:00,19.9,15.6,29.22,NW,310,3.0,4.0,83,0.00,,,0.00,Wunderground v.1.15,2013-01-02 06:00:00,
2013-01-02 01:05:00,20.1,15.8,29.22,NNW,329,4.0,9.0,83,0.00,,,0.00,Wunderground v.1.15,2013-01-02 06:05:00,
2013-01-02 01:14:00,20.5,16.4,29.22,NW,304,5.0,9.0,84,0.00,,,0.00,Wunderground v.1.15,2013-01-02 06:14:00,
2013-01-02 01:19:00,20.6,16.5,29.22,WNW,298,5.0,9.0,84,0.00,,,0.00,Wunderground v.1.15,2013-01-02 06:19:00,
2013-01-02 01:24:00,20.6,16.3,29.22,NNW,329,5.0,9.0,83,0.00,,,0.00,Wunderground v.1.15,2013-01-02 06:24:00,
2013-01-02 01:29:00,20.6,16.3,29.22,NW,311,4.0,4.0,83,0.00,,,0.00,Wunderground v.1.15,2013-01-02 06:29:00,
2013-01-02 01:34:00,20.7,16.4,29.22,NNW,329,4.0,9.0,83,0.00,,,0.00,Wunderground v.1.15,2013-01-02 06:34:00,
2013-01-02 01:39:00,20.7,16.4,29.22,NNW,334,4.0,9.0,83,0.00,,,0.00,Wunderground v.1.15,2013-01-02 06:39:00,
2013-01-02 01:49:00,20.7,16.4,29.21,NNW,329,4.0,4.0,83,0.00,,,0.00,Wunderground v.1.15,2013-01-02 06:49:00,
2013-01-02 01:54:00,20.7,16.4,29.21,NW,320,3.0,9.0,83,0.00,,,0.00,Wunderground v.1.15,2013-01-02 06:54:00,
2013-01-02 01:59:00,20.7,16.4,29.21,NNW,343,3.0,9.0,83,0.00,,,0.00,Wunderground v.1.15,2013-01-02 06:59:00,
2013-01-02 02:04:00,20.8,16.5,29.21,NNW,336,5.0,9.0,83,0.00,,,0.00,Wunderground v.1.15,2013-01-02 07:04:00,
2013-01-02 02:09:00,20.9,16.5,29.21,NNW,347,6.0,6.0,83,0.00,,,0.00,Wunderground v.1.15,2013-01-02 07:09:00,
2013-01-02 02:19:00,21.3,16.9,29.21,NW,325,6.0,6.0,83,0.00,,,0.00,Wunderground v.1.15,2013-01-02 07:19:00,
2013-01-02 02:24:00,21.4,17.0,29.21,North,351,7.0,7.0,83,0.00,,,0.00,Wunderground v.1.15,2013-01-02 07:24:00,
2013-01-02 02:29:00,21.6,17.2,29.21,North,355,7.0,7.0,83,0.00,,,0.00,Wunderground v.1.15,2013-01-02 07:29:00,
2013-01-02 02:34:00,21.7,17.1,29.21,NW,309,6.0,9.0,82,0.00,,,0.00,Wunderground v.1.15,2013-01-02 07:34:00,
2013-01-02 02:39:00,21.8,16.9,29.21,NW,317,7.0,7.0,81,0.00,,,0.00,Wunderground v.1.15,2013-01-02 07:39:00,
2013-01-02 02:44:00,22.0,17.1,29.22,WNW,300,7.0,8.0,81,0.00,,,0.00,Wunderground v.1.15,2013-01-02 07:44:00,
2013-01-02 02:50:00,22.2,17.3,29.21,NNW,333,7.0,9.0,81,0.00,,,0.00,Wunderground v.1.15,2013-01-02 07:50:00,
2013-01-02 02:55:00,22.2,17.3,29.21,NW,317,7.0,9.0,81,0.00,,,0.00,Wunderground v.1.15,2013-01-02 07:55:00,
2013-01-02 03:00:00,22.2,17.0,29.22,WNW,297,7.0,7.0,80,0.00,,,0.00,Wunderground v.1.15,2013-01-02 08:00:00,
2013-01-02 03:05:00,22.2,17.0,29.21,NNW,337,7.0,9.0,80,0.00,,,0.00,Wunderground v.1.15,2013-01-02 08:05:00,
2013-01-02 03:10:00,22.2,17.0,29.22,NW,306,7.0,7.0,80,0.00,,,0.00,Wunderground v.1.15,2013-01-02 08:10:00,
2013-01-02 03:15:00,22.1,16.9,29.22,NNW,336,8.0,8.0,80,0.00,,,0.00,Wunderground v.1.15,2013-01-02 08:15:00,
2013-01-02 03:25:00,22.0,17.1,29.22,North,5,7.0,10.0,81,0.00,,,0.00,Wunderground v.1.15,2013-01-02 08:25:00,
2013-01-02 03:30:00,21.9,16.7,29.22,NNW,335,8.0,8.0,80,0.00,,,0.00,Wunderground v.1.15,2013-01-02 08:30:00,
2013-01-02 03:35:00,21.8,16.6,29.22,North,11,9.0,9.0,80,0.00,,,0.00,Wunderground v.1.15,2013-01-02 08:35:00,
2013-01-02 03:40:00,21.8,16.6,29.21,North,355,9.0,9.0,80,0.00,,,0.00,Wunderground v.1.15,2013-01-02 08:40:00,
2013-01-02 03:45:00,21.8,16.6,29.21,NNE,12,8.0,9.0,80,0.00,,,0.00,Wunderground v.1.15,2013-01-02 08:45:00,
2013-01-02 03:55:00,21.8,16.6,29.21,North,351,8.0,9.0,80,0.00,,,0.00,Wunderground v.1.15,2013-01-02 08:55:00,
2013-01-02 04:00:00,21.8,16.6,29.21,NNW,348,7.0,9.0,80,0.00,,,0.00,Wunderground v.1.15,2013-01-02 09:00:00,
2013-01-02 04:05:00,21.7,16.5,29.21,North,360,7.0,10.0,80,0.00,,,0.00,Wunderground v.1.15,2013-01-02 09:05:00,
2013-01-02 04:10:00,21.7,16.5,29.21,North,355,7.0,10.0,80,0.00,,,0.00,Wunderground v.1.15,2013-01-02 09:10:00,
2013-01-02 04:15:00,21.6,16.4,29.21,North,9,8.0,10.0,80,0.00,,,0.00,Wunderground v.1.15,2013-01-02 09:15:00,
2013-01-02 04:20:00,21.5,16.3,29.21,North,351,8.0,8.0,80,0.00,,,0.00,Wunderground v.1.15,2013-01-02 09:20:00,
2013-01-02 04:29:00,21.5,16.3,29.21,North,355,9.0,9.0,80,0.00,,,0.00,Wunderground v.1.15,2013-01-02 09:29:00,
2013-01-02 04:34:00,21.6,16.4,29.21,NNW,342,9.0,9.0,80,0.00,,,0.00,Wunderground v.1.15,2013-01-02 09:34:00,
2013-01-02 04:39:00,21.7,16.5,29.21,NNW,338,9.0,11.0,80,0.00,,,0.00,Wunderground v.1.15,2013-01-02 09:39:00,
2013-01-02 04:44:00,21.7,16.5,29.21,NW,304,8.0,11.0,80,0.00,,,0.00,Wunderground v.1.15,2013-01-02 09:44:00,
2013-01-02 04:49:00,21.8,16.6,29.21,NNW,339,7.0,9.0,80,0.00,,,0.00,Wunderground v.1.15,2013-01-02 09:49:00,
2013-01-02 04:59:00,21.8,16.6,29.20,NNW,348,6.0,9.0,80,0.00,,,0.00,Wunderground v.1.15,2013-01-02 09:59:00,
2013-01-02 05:04:00,21.8,16.9,29.20,NW,318,6.0,9.0,81,0.00,,,0.00,Wunderground v.1.15,2013-01-02 10:04:00,
2013-01-02 05:09:00,21.7,16.8,29.20,NW,309,5.0,9.0,81,0.00,,,0.00,Wunderground v.1.15,2013-01-02 10:09:00,
2013-01-02 05:14:00,21.6,16.7,29.20,NW,321,5.0,9.0,81,0.00,,,0.00,Wunderground v.1.15,2013-01-02 10:14:00,
2013-01-02 05:19:00,21.5,16.6,29.20,NW,308,5.0,9.0,81,0.00,,,0.00,Wunderground v.1.15,2013-01-02 10:19:00,
2013-01-02 05:24:00,21.5,16.9,29.21,NW,311,6.0,9.0,82,0.00,,,0.00,Wunderground v.1.15,2013-01-02 10:24:00,
2013-01-02 05:34:00,21.5,16.9,29.20,NW,306,5.0,9.0,82,0.00,,,0.00,Wunderground v.1.15,2013-01-02 10:34:00,
2013-01-02 05:39:00,21.5,16.9,29.20,NNW,344,5.0,9.0,82,0.00,,,0.00,Wunderground v.1.15,2013-01-02 10:39:00,
2013-01-02 05:44:00,21.5,16.9,29.21,NW,318,6.0,9.0,82,0.00,,,0.00,Wunderground v.1.15,2013-01-02 10:44:00,
2013-01-02 05:49:00,21.4,17.0,29.21,NW,314,5.0,9.0,83,0.00,,,0.00,Wunderground v.1.15,2013-01-02 10:49:00,
2013-01-02 05:54:00,21.4,17.0,29.21,WNW,292,6.0,9.0,83,0.00,,,0.00,Wunderground v.1.15,2013-01-02 10:54:00,
2013-01-02 06:04:00,21.3,16.9,29.21,NNW,332,6.0,9.0,83,0.00,,,0.00,Wunderground v.1.15,2013-01-02 11:04:00,
2013-01-02 06:09:00,21.3,16.9,29.21,NW,311,6.0,6.0,83,0.00,,,0.00,Wunderground v.1.15,2013-01-02 11:09:00,
2013-01-02 06:14:00,21.3,16.9,29.22,NNW,329,6.0,7.0,83,0.00,,,0.00,Wunderground v.1.15,2013-01-02 11:14:00,
2013-01-02 06:19:00,21.3,16.9,29.22,North,355,6.0,6.0,83,0.00,,,0.00,Wunderground v.1.15,2013-01-02 11:19:00,
2013-01-02 06:24:00,21.3,16.9,29.22,NW,323,6.0,9.0,83,0.00,,,0.00,Wunderground v.1.15,2013-01-02 11:24:00,
2013-01-02 06:29:00,21.4,17.0,29.22,NNW,330,6.0,9.0,83,0.00,,,0.00,Wunderground v.1.15,2013-01-02 11:29:00,
2013-01-02 06:35:00,21.3,16.9,29.22,WNW,296,6.0,9.0,83,0.00,,,0.00,Wunderground v.1.15,2013-01-02 11:35:00,
2013-01-02 06:40:00,21.4,17.0,29.22,West,279,6.0,9.0,83,0.00,,,0.00,Wunderground v.1.15,2013-01-02 11:40:00,
2013-01-02 06:45:00,21.4,17.0,29.22,NW,309,6.0,9.0,83,0.00,,,0.00,Wunderground v.1.15,2013-01-02 11:45:00,
2013-01-02 06:50:00,21.4,17.0,29.22,West,262,6.0,6.0,83,0.00,,,0.00,Wunderground v.1.15,2013-01-02 11:50:00,
2013-01-02 06:55:00,21.5,17.1,29.22,NW,309,7.0,7.0,83,0.00,,,0.00,Wunderground v.1.15,2013-01-02 11:55:00,
2013-01-02 07:00:00,21.5,16.9,29.23,West,261,7.0,9.0,82,0.00,,,0.00,Wunderground v.1.15,2013-01-02 12:00:00,
2013-01-02 07:10:00,21.5,16.9,29.23,NW,320,7.0,7.0,82,0.00,,,0.00,Wunderground v.1.15,2013-01-02 12:10:00,
2013-01-02 07:15:00,21.6,17.0,29.24,NW,306,7.0,9.0,82,0.00,,,0.00,Wunderground v.1.15,2013-01-02 12:15:00,
2013-01-02 07:20:00,21.6,17.0,29.24,NW,321,6.0,6.0,82,0.00,,,0.00,Wunderground v.1.15,2013-01-02 12:20:00,
2013-01-02 07:25:00,21.6,17.0,29.24,WSW,258,6.0,7.0,82,0.00,,,0.00,Wunderground v.1.15,2013-01-02 12:25:00,
2013-01-02 07:30:00,21.6,17.0,29.24,NW,308,7.0,7.0,82,0.00,,,0.00,Wunderground v.1.15,2013-01-02 12:30:00,
2013-01-02 07:39:00,21.7,17.1,29.24,WNW,301,7.0,9.0,82,0.00,,,0.00,Wunderground v.1.15,2013-01-02 12:39:00,
2013-01-02 07:45:00,21.7,17.1,29.25,WNW,292,6.0,9.0,82,0.00,,,0.00,Wunderground v.1.15,2013-01-02 12:45:00,
2013-01-02 07:50:00,21.8,17.2,29.25,NW,309,6.0,6.0,82,0.00,,,0.00,Wunderground v.1.15,2013-01-02 12:50:00,
2013-01-02 07:55:00,21.8,17.2,29.24,WNW,303,6.0,9.0,82,0.00,,,0.00,Wunderground v.1.15,2013-01-02 12:55:00,
2013-01-02 08:00:00,21.7,17.1,29.24,WNW,302,7.0,9.0,82,0.00,,,0.00,Wunderground v.1.15,2013-01-02 13:00:00,
2013-01-02 08:05:00,21.6,17.0,29.25,NNW,334,7.0,9.0,82,0.00,,,0.00,Wunderground v.1.15,2013-01-02 13:05:00,
2013-01-02 08:14:00,21.6,17.2,29.24,North,355,5.0,9.0,83,0.00,,,0.00,Wunderground v.1.15,2013-01-02 13:14:00,
2013-01-02 08:19:00,21.9,17.5,29.24,NW,313,5.0,9.0,83,0.00,,,0.00,Wunderground v.1.15,2013-01-02 13:19:00,
2013-01-02 08:24:00,22.5,18.1,29.25,WNW,289,6.0,9.0,83,0.00,,,0.00,Wunderground v.1.15,2013-01-02 13:24:00,
2013-01-02 08:29:00,22.7,18.0,29.25,WNW,298,6.0,6.0,82,0.00,,,0.00,Wunderground v.1.15,2013-01-02 13:29:00,
2013-01-02 08:34:00,22.6,17.6,29.25,WNW,294,7.0,10.0,81,0.00,,,0.00,Wunderground v.1.15,2013-01-02 13:34:00,
2013-01-02 08:44:00,22.4,17.7,29.26,West,279,5.0,9.0,82,0.00,,,0.00,Wunderground v.1.15,2013-01-02 13:44:00,
2013-01-02 08:49:00,22.5,17.8,29.26,WNW,286,5.0,5.0,82,0.00,,,0.00,Wunderground v.1.15,2013-01-02 13:49:00,
2013-01-02 08:54:00,22.5,17.8,29.26,NW,306,5.0,9.0,82,0.00,,,0.00,Wunderground v.1.15,2013-01-02 13:54:00,
2013-01-02 08:59:00,22.6,17.6,29.26,WNW,301,6.0,6.0,81,0.00,,,0.00,Wunderground v.1.15,2013-01-02 13:59:00,
2013-01-02 09:04:00,22.6,17.9,29.26,West,273,6.0,7.0,82,0.00,,,0.00,Wunderground v.1.15,2013-01-02 14:04:00,
2013-01-02 09:09:00,22.6,17.6,29.27,WNW,295,5.0,5.0,81,0.00,,,0.00,Wunderground v.1.15,2013-01-02 14:09:00,
2013-01-02 09:19:00,22.9,18.2,29.27,WNW,284,5.0,5.0,82,0.00,,,0.00,Wunderground v.1.15,2013-01-02 14:19:00,
2013-01-02 09:24:00,23.0,18.3,29.27,WNW,290,5.0,9.0,82,0.00,,,0.00,Wunderground v.1.15,2013-01-02 14:24:00,
2013-01-02 09:29:00,23.1,18.4,29.27,NNW,340,6.0,9.0,82,0.00,,,0.00,Wunderground v.1.15,2013-01-02 14:29:00,
2013-01-02 09:34:00,23.2,18.5,29.28,North,5,6.0,9.0,82,0.00,,,0.00,Wunderground v.1.15,2013-01-02 14:34:00,
2013-01-02 09:39:00,23.3,18.6,29.28,NNW,334,5.0,9.0,82,0.00,,,0.00,Wunderground v.1.15,2013-01-02 14:39:00,
2013-01-02 09:45:00,23.4,18.7,29.28,WNW,288,5.0,9.0,82,0.00,,,0.00,Wunderground v.1.15,2013-01-02 14:45:00,
2013-01-02 09:50:00,23.5,18.5,29.28,NW,313,5.0,5.0,81,0.00,,,0.00,Wunderground v.1.15,2013-01-02 14:50:00,
2013-01-02 09:59:00,23.6,18.6,29.28,WNW,294,5.0,5.0,81,0.00,,,0.00,Wunderground v.1.15,2013-01-02 14:59:00,
2013-01-02 10:04:00,23.7,18.7,29.28,NNW,335,5.0,9.0,81,0.00,,,0.00,Wunderground v.1.15,2013-01-02 15:04:00,
2013-01-02 10:09:00,23.9,18.9,29.28,NW,321,5.0,5.0,81,0.00,,,0.00,Wunderground v.1.15,2013-01-02 15:09:00,
2013-01-02 10:14:00,24.0,19.0,29.28,WNW,293,5.0,9.0,81,0.00,,,0.00,Wunderground v.1.15,2013-01-02 15:14:00,
2013-01-02 10:20:00,24.5,19.5,29.28,NNW,335,5.0,9.0,81,0.00,,,0.00,Wunderground v.1.15,2013-01-02 15:20:00,
2013-01-02 10:25:00,25.2,20.2,29.29,NNW,328,5.0,9.0,81,0.00,,,0.00,Wunderground v.1.15,2013-01-02 15:25:00,
2013-01-02 10:34:00,25.7,20.4,29.29,NW,319,5.0,9.0,80,0.00,,,0.00,Wunderground v.1.15,2013-01-02 15:34:00,
2013-01-02 10:39:00,25.5,19.9,29.29,NW,321,5.0,5.0,79,0.00,,,0.00,Wunderground v.1.15,2013-01-02 15:39:00,
2013-01-02 10:44:00,25.4,20.1,29.29,NNW,335,5.0,7.0,80,0.00,,,0.00,Wunderground v.1.15,2013-01-02 15:44:00,
2013-01-02 10:50:00,25.3,19.7,29.29,NNW,330,6.0,6.0,79,0.00,,,0.00,Wunderground v.1.15,2013-01-02 15:50:00,
2013-01-02 10:55:00,25.3,20.3,29.29,NNW,333,5.0,9.0,81,0.00,,,0.00,Wunderground v.1.15,2013-01-02 15:55:00,
2013-01-02 11:00:00,25.2,20.2,29.29,NW,315,5.0,9.0,81,0.00,,,0.00,Wunderground v.1.15,2013-01-02 16:00:00,
2013-01-02 11:05:00,25.2,20.2,29.29,NW,316,5.0,9.0,81,0.00,,,0.00,Wunderground v.1.15,2013-01-02 16:05:00,
2013-01-02 11:10:00,25.4,20.7,29.29,NNW,327,5.0,5.0,82,0.00,,,0.00,Wunderground v.1.15,2013-01-02 16:10:00,
2013-01-02 11:15:00,25.8,21.1,29.29,NW,317,5.0,9.0,82,0.00,,,0.00,Wunderground v.1.15,2013-01-02 16:15:00,
2013-01-02 11:25:00,26.1,21.1,29.29,NNW,345,6.0,9.0,81,0.00,,,0.00,Wunderground v.1.15,2013-01-02 16:25:00,
2013-01-02 11:30:00,26.0,21.0,29.29,WNW,286,7.0,9.0,81,0.00,,,0.00,Wunderground v.1.15,2013-01-02 16:30:00,
2013-01-02 11:35:00,25.9,20.6,29.29,NW,314,6.0,9.0,80,0.00,,,0.00,Wunderground v.1.15,2013-01-02 16:35:00,
2013-01-02 11:40:00,25.9,20.6,29.29,NNW,347,5.0,5.0,80,0.00,,,0.00,Wunderground v.1.15,2013-01-02 16:40:00,
2013-01-02 11:45:00,26.1,20.8,29.29,NW,313,4.0,9.0,80,0.00,,,0.00,Wunderground v.1.15,2013-01-02 16:45:00,
2013-01-02 11:50:00,26.2,20.9,29.29,NW,315,4.0,4.0,80,0.00,,,0.00,Wunderground v.1.15,2013-01-02 16:50:00,
2013-01-02 12:00:00,26.3,21.0,29.29,NNW,331,5.0,5.0,80,0.00,,,0.00,Wunderground v.1.15,2013-01-02 17:00:00,
2013-01-02 12:05:00,26.3,21.0,29.29,WNW,303,5.0,9.0,80,0.00,,,0.00,Wunderground v.1.15,2013-01-02 17:05:00,
2013-01-02 12:10:00,26.5,21.2,29.29,North,355,6.0,9.0,80,0.00,,,0.00,Wunderground v.1.15,2013-01-02 17:10:00,
2013-01-02 12:15:00,26.5,21.2,29.29,North,10,7.0,9.0,80,0.00,,,0.00,Wunderground v.1.15,2013-01-02 17:15:00,
2013-01-02 12:24:00,26.7,21.4,29.29,North,355,7.0,10.0,80,0.00,,,0.00,Wunderground v.1.15,2013-01-02 17:24:00,
2013-01-02 12:30:00,26.6,21.3,29.29,NW,318,7.0,11.0,80,0.00,,,0.00,Wunderground v.1.15,2013-01-02 17:30:00,
2013-01-02 12:35:00,26.6,21.3,29.30,NW,320,7.0,11.0,80,0.00,,,0.00,Wunderground v.1.15,2013-01-02 17:35:00,
2013-01-02 12:40:00,26.7,21.4,29.30,NNW,341,7.0,7.0,80,0.00,,,0.00,Wunderground v.1.15,2013-01-02 17:40:00,
2013-01-02 12:45:00,26.7,21.4,29.30,NNW,342,6.0,9.0,80,0.00,,,0.00,Wunderground v.1.15,2013-01-02 17:45:00,
2013-01-02 12:50:00,26.8,21.5,29.30,WNW,301,5.0,9.0,80,0.00,,,0.00,Wunderground v.1.15,2013-01-02 17:50:00,
2013-01-02 12:55:00,26.9,21.6,29.30,NW,317,6.0,9.0,80,0.00,,,0.00,Wunderground v.1.15,2013-01-02 17:55:00,
2013-01-02 13:05:00,26.9,21.6,29.30,NNW,337,6.0,11.0,80,0.00,,,0.00,Wunderground v.1.15,2013-01-02 18:05:00,
2013-01-02 13:10:00,26.9,21.6,29.30,NNW,333,6.0,6.0,80,0.00,,,0.00,Wunderground v.1.15,2013-01-02 18:10:00,
2013-01-02 13:15:00,26.9,21.8,29.30,NNW,340,6.0,7.0,81,0.00,,,0.00,Wunderground v.1.15,2013-01-02 18:15:00,
2013-01-02 13:20:00,26.9,21.8,29.31,NW,324,6.0,6.0,81,0.00,,,0.00,Wunderground v.1.15,2013-01-02 18:20:00,
2013-01-02 13:25:00,26.9,21.8,29.31,NNW,346,5.0,9.0,81,0.00,,,0.00,Wunderground v.1.15,2013-01-02 18:25:00,
2013-01-02 13:35:00,27.1,21.7,29.31,North,351,5.0,9.0,80,0.00,,,0.00,Wunderground v.1.15,2013-01-02 18:35:00,
2013-01-02 13:40:00,27.1,21.7,29.31,WNW,290,5.0,5.0,80,0.00,,,0.00,Wunderground v.1.15,2013-01-02 18:40:00,
2013-01-02 13:45:00,27.2,21.8,29.31,NNW,345,5.0,6.0,80,0.00,,,0.00,Wunderground v.1.15,2013-01-02 18:45:00,
2013-01-02 13:50:00,27.2,21.8,29.31,NW,317,5.0,9.0,80,0.00,,,0.00,Wunderground v.1.15,2013-01-02 18:50:00,
2013-01-02 13:55:00,27.2,21.8,29.31,NNW,335,5.0,9.0,80,0.00,,,0.00,Wunderground v.1.15,2013-01-02 18:55:00,
2013-01-02 14:00:00,27.1,21.7,29.32,NNW,333,6.0,6.0,80,0.00,,,0.00,Wunderground v.1.15,2013-01-02 19:00:00,
2013-01-02 14:09:00,27.2,21.8,29.32,NNW,338,4.0,9.0,80,0.00,,,0.00,Wunderground v.1.15,2013-01-02 19:09:00,
2013-01-02 14:14:00,27.3,21.9,29.32,NNW,340,4.0,9.0,80,0.00,,,0.00,Wunderground v.1.15,2013-01-02 19:14:00,
2013-01-02 14:19:00,27.4,22.0,29.32,NW,312,5.0,5.0,80,0.00,,,0.00,Wunderground v.1.15,2013-01-02 19:19:00,
2013-01-02 14:24:00,27.6,22.2,29.32,NW,326,5.0,9.0,80,0.00,,,0.00,Wunderground v.1.15,2013-01-02 19:24:00,
2013-01-02 14:29:00,27.7,22.3,29.32,NNW,337,5.0,5.0,80,0.00,,,0.00,Wunderground v.1.15,2013-01-02 19:29:00,
2013-01-02 14:39:00,27.8,22.4,29.32,NW,316,5.0,5.0,80,0.00,,,0.00,Wunderground v.1.15,2013-01-02 19:39:00,
2013-01-02 14:44:00,27.8,22.1,29.33,NW,321,4.0,9.0,79,0.00,,,0.00,Wunderground v.1.15,2013-01-02 19:44:00,
2013-01-02 14:49:00,27.7,22.0,29.33,NNW,335,4.0,9.0,79,0.00,,,0.00,Wunderground v.1.15,2013-01-02 19:49:00,
2013-01-02 14:54:00,27.6,21.9,29.33,NW,312,4.0,9.0,79,0.00,,,0.00,Wunderground v.1.15,2013-01-02 19:54:00,
2013-01-02 14:59:00,27.6,21.9,29.34,WNW,300,4.0,9.0,79,0.00,,,0.00,Wunderground v.1.15,2013-01-02 19:59:00,
2013-01-02 15:04:00,27.6,21.9,29.34,NW,317,5.0,9.0,79,0.00,,,0.00,Wunderground v.1.15,2013-01-02 20:04:00,
2013-01-02 15:14:00,27.4,21.7,29.34,NNW,341,4.0,9.0,79,0.00,,,0.00,Wunderground v.1.15,2013-01-02 20:14:00,
2013-01-02 15:19:00,27.4,21.7,29.34,NW,323,4.0,4.0,79,0.00,,,0.00,Wunderground v.1.15,2013-01-02 20:19:00,
2013-01-02 15:24:00,27.4,21.7,29.34,NNW,336,4.0,6.0,79,0.00,,,0.00,Wunderground v.1.15,2013-01-02 20:24:00,
2013-01-02 15:29:00,27.3,21.9,29.34,NW,326,4.0,9.0,80,0.00,,,0.00,Wunderground v.1.15,2013-01-02 20:29:00,
2013-01-02 15:34:00,27.2,21.8,29.34,NNW,336,5.0,9.0,80,0.00,,,0.00,Wunderground v.1.15,2013-01-02 20:34:00,
2013-01-02 15:44:00,26.9,21.6,29.34,North,355,6.0,9.0,80,0.00,,,0.00,Wunderground v.1.15,2013-01-02 20:44:00,
2013-01-02 15:49:00,26.9,21.6,29.34,NNW,327,5.0,5.0,80,0.00,,,0.00,Wunderground v.1.15,2013-01-02 20:49:00,
2013-01-02 15:54:00,26.8,21.5,29.34,NW,315,5.0,9.0,80,0.00,,,0.00,Wunderground v.1.15,2013-01-02 20:54:00,
2013-01-02 15:59:00,26.7,21.4,29.34,WNW,300,4.0,9.0,80,0.00,,,0.00,Wunderground v.1.15,2013-01-02 20:59:00,
2013-01-02 16:04:00,26.7,21.4,29.34,NW,315,4.0,9.0,80,0.00,,,0.00,Wunderground v.1.15,2013-01-02 21:04:00,
2013-01-02 16:09:00,26.7,21.4,29.34,NW,321,5.0,5.0,80,0.00,,,0.00,Wunderground v.1.15,2013-01-02 21:09:00,
2013-01-02 16:15:00,26.6,21.3,29.34,NW,321,5.0,9.0,80,0.00,,,0.00,Wunderground v.1.15,2013-01-02 21:15:00,
2013-01-02 16:24:00,26.4,21.4,29.34,NNW,338,4.0,9.0,81,0.00,,,0.00,Wunderground v.1.15,2013-01-02 21:24:00,
2013-01-02 16:29:00,26.4,21.4,29.34,NNW,330,4.0,4.0,81,0.00,,,0.00,Wunderground v.1.15,2013-01-02 21:29:00,
2013-01-02 16:34:00,26.3,21.3,29.34,NNW,336,4.0,9.0,81,0.00,,,0.00,Wunderground v.1.15,2013-01-02 21:34:00,
2013-01-02 16:39:00,26.3,21.6,29.35,NNW,334,3.0,3.0,82,0.00,,,0.00,Wunderground v.1.15,2013-01-02 21:39:00,
2013-01-02 16:45:00,26.2,21.5,29.35,NNW,334,2.0,9.0,82,0.00,,,0.00,Wunderground v.1.15,2013-01-02 21:45:00,
2013-01-02 16:50:00,26.2,21.5,29.35,NNW,340,2.0,9.0,82,0.00,,,0.00,Wunderground v.1.15,2013-01-02 21:50:00,
2013-01-02 16:55:00,26.1,21.4,29.35,NNW,342,2.0,9.0,82,0.00,,,0.00,Wunderground v.1.15,2013-01-02 21:55:00,
2013-01-02 17:00:00,26.0,21.3,29.36,North,355,3.0,3.0,82,0.00,,,0.00,Wunderground v.1.15,2013-01-02 22:00:00,
2013-01-02 17:05:00,25.8,20.8,29.36,North,355,3.0,9.0,81,0.00,,,0.00,Wunderground v.1.15,2013-01-02 22:05:00,
2013-01-02 17:10:00,25.7,20.7,29.37,NNE,19,3.0,9.0,81,0.00,,,0.00,Wunderground v.1.15,2013-01-02 22:10:00,
2013-01-02 17:20:00,25.7,21.0,29.37,NE,44,3.0,9.0,82,0.00,,,0.00,Wunderground v.1.15,2013-01-02 22:20:00,
2013-01-02 17:25:00,25.6,20.9,29.38,NE,44,3.0,9.0,82,0.00,,,0.00,Wunderground v.1.15,2013-01-02 22:25:00,
2013-01-02 17:30:00,25.5,20.8,29.37,ENE,76,4.0,4.0,82,0.00,,,0.00,Wunderground v.1.15,2013-01-02 22:30:00,
2013-01-02 17:35:00,25.4,21.0,29.37,ENE,69,4.0,9.0,83,0.00,,,0.00,Wunderground v.1.15,2013-01-02 22:35:00,
2013-01-02 17:40:00,25.2,21.0,29.38,ENE,70,3.0,9.0,84,0.00,,,0.00,Wunderground v.1.15,2013-01-02 22:40:00,
2013-01-02 17:45:00,25.0,21.4,29.38,ENE,70,4.0,9.0,86,0.00,,,0.00,Wunderground v.1.15,2013-01-02 22:45:00,
2013-01-02 17:54:00,24.5,21.7,29.38,East,90,5.0,9.0,89,0.00,,,0.00,Wunderground v.1.15,2013-01-02 22:54:00,
2013-01-02 17:59:00,24.2,21.7,29.38,East,90,5.0,9.0,90,0.00,,,0.00,Wunderground v.1.15,2013-01-02 22:59:00,
2013-01-02 18:04:00,23.9,21.7,29.38,SE,130,5.0,9.0,91,0.00,,,0.00,Wunderground v.1.15,2013-01-02 23:04:00,
2013-01-02 18:09:00,23.6,21.4,29.38,SE,130,5.0,9.0,91,0.00,,,0.00,Wunderground v.1.15,2013-01-02 23:09:00,
2013-01-02 18:14:00,23.4,21.4,29.38,SE,124,4.0,9.0,92,0.00,,,0.00,Wunderground v.1.15,2013-01-02 23:14:00,
2013-01-02 18:24:00,23.1,21.1,29.38,SSE,152,3.0,9.0,92,0.00,,,0.00,Wunderground v.1.15,2013-01-02 23:24:00,
2013-01-02 18:29:00,23.0,21.0,29.38,SSE,152,3.0,3.0,92,0.00,,,0.00,Wunderground v.1.15,2013-01-02 23:29:00,
2013-01-02 18:34:00,22.9,20.9,29.38,SSE,152,3.0,6.0,92,0.00,,,0.00,Wunderground v.1.15,2013-01-02 23:34:00,
2013-01-02 18:39:00,22.8,20.8,29.38,SSE,152,4.0,4.0,92,0.00,,,0.00,Wunderground v.1.15,2013-01-02 23:39:00,
2013-01-02 18:44:00,22.7,20.7,29.38,SSE,158,4.0,5.0,92,0.00,,,0.00,Wunderground v.1.15,2013-01-02 23:44:00,
2013-01-02 18:49:00,22.5,20.5,29.39,SSE,159,4.0,9.0,92,0.00,,,0.00,Wunderground v.1.15,2013-01-02 23:49:00,
2013-01-02 18:59:00,22.2,20.2,29.39,SSE,161,2.0,2.0,92,0.00,,,0.00,Wunderground v.1.15,2013-01-02 23:59:00,
2013-01-02 19:04:00,22.1,20.1,29.39,SSE,161,2.0,9.0,92,0.00,,,0.00,Wunderground v.1.15,2013-01-03 00:04:00,
2013-01-02 19:09:00,22.0,20.0,29.39,SSE,161,2.0,2.0,92,0.00,,,0.00,Wunderground v.1.15,2013-01-03 00:09:00,
2013-01-02 19:14:00,21.9,19.9,29.39,SSE,161,2.0,5.0,92,0.00,,,0.00,Wunderground v.1.15,2013-01-03 00:14:00,
2013-01-02 19:19:00,21.8,19.8,29.38,SSE,161,3.0,3.0,92,0.00,,,0.00,Wunderground v.1.15,2013-01-03 00:19:00,
2013-01-02 19:29:00,21.6,19.6,29.39,SSE,162,2.0,2.0,92,0.00,,,0.00,Wunderground v.1.15,2013-01-03 00:29:00,
2013-01-02 19:34:00,21.4,19.4,29.39,SSE,161,2.0,9.0,92,0.00,,,0.00,Wunderground v.1.15,2013-01-03 00:34:00,
2013-01-02 19:39:00,21.3,19.3,29.39,SSE,161,3.0,9.0,92,0.00,,,0.00,Wunderground v.1.15,2013-01-03 00:39:00,
2013-01-02 19:44:00,21.2,19.2,29.39,South,173,3.0,9.0,92,0.00,,,0.00,Wunderground v.1.15,2013-01-03 00:44:00,
2013-01-02 19:49:00,21.2,19.2,29.39,South,173,3.0,9.0,92,0.00,,,0.00,Wunderground v.1.15,2013-01-03 00:49:00,
2013-01-02 19:54:00,21.1,19.1,29.40,South,170,2.0,9.0,92,0.00,,,0.00,Wunderground v.1.15,2013-01-03 00:54:00,
2013-01-02 20:04:00,20.9,18.7,29.39,South,185,4.0,9.0,91,0.00,,,0.00,Wunderground v.1.15,2013-01-03 01:04:00,
2013-01-02 20:09:00,20.8,18.6,29.40,SSE,154,4.0,4.0,91,0.00,,,0.00,Wunderground v.1.15,2013-01-03 01:09:00,
2013-01-02 20:14:00,20.7,18.5,29.40,South,169,5.0,5.0,91,0.00,,,0.00,Wunderground v.1.15,2013-01-03 01:14:00,
2013-01-02 20:19:00,20.7,18.5,29.40,South,187,4.0,4.0,91,0.00,,,0.00,Wunderground v.1.15,2013-01-03 01:19:00,
2013-01-02 20:24:00,20.7,18.5,29.40,South,186,3.0,9.0,91,0.00,,,0.00,Wunderground v.1.15,2013-01-03 01:24:00,
2013-01-02 20:30:00,20.7,18.5,29.40,South,182,2.0,9.0,91,0.00,,,0.00,Wunderground v.1.15,2013-01-03 01:30:00,
2013-01-02 20:35:00,20.6,18.4,29.40,South,173,3.0,9.0,91,0.00,,,0.00,Wunderground v.1.15,2013-01-03 01:35:00,
2013-01-02 20:40:00,20.6,18.4,29.41,South,189,3.0,3.0,91,0.00,,,0.00,Wunderground v.1.15,2013-01-03 01:40:00,
2013-01-02 20:45:00,20.5,18.3,29.40,SSW,198,3.0,9.0,91,0.00,,,0.00,Wunderground v.1.15,2013-01-03 01:45:00,
2013-01-02 20:50:00,20.5,18.3,29.41,South,191,3.0,9.0,91,0.00,,,0.00,Wunderground v.1.15,2013-01-03 01:50:00,
2013-01-02 20:59:00,20.4,17.9,29.40,South,187,4.0,9.0,90,0.00,,,0.00,Wunderground v.1.15,2013-01-03 01:59:00,
2013-01-02 21:05:00,20.4,18.2,29.40,South,183,3.0,9.0,91,0.00,,,0.00,Wunderground v.1.15,2013-01-03 02:05:00,
2013-01-02 21:10:00,20.4,18.2,29.40,SSE,157,3.0,3.0,91,0.00,,,0.00,Wunderground v.1.15,2013-01-03 02:10:00,
2013-01-02 21:15:00,20.4,18.2,29.40,South,184,3.0,9.0,91,0.00,,,0.00,Wunderground v.1.15,2013-01-03 02:15:00,
2013-01-02 21:24:00,20.3,18.1,29.41,South,187,2.0,9.0,91,0.00,,,0.00,Wunderground v.1.15,2013-01-03 02:24:00,
2013-01-02 21:29:00,20.3,18.1,29.41,South,187,2.0,9.0,91,0.00,,,0.00,Wunderground v.1.15,2013-01-03 02:29:00,
2013-01-02 21:35:00,20.3,18.1,29.41,South,186,2.0,9.0,91,0.00,,,0.00,Wunderground v.1.15,2013-01-03 02:35:00,
2013-01-02 21:40:00,20.3,18.1,29.41,SSE,159,3.0,9.0,91,0.00,,,0.00,Wunderground v.1.15,2013-01-03 02:40:00,
2013-01-02 21:45:00,20.3,18.1,29.41,SSE,163,3.0,9.0,91,0.00,,,0.00,Wunderground v.1.15,2013-01-03 02:45:00,
2013-01-02 21:50:00,20.3,18.1,29.41,South,174,3.0,3.0,91,0.00,,,0.00,Wunderground v.1.15,2013-01-03 02:50:00,
2013-01-02 21:55:00,20.2,18.0,29.41,South,190,3.0,6.0,91,0.00,,,0.00,Wunderground v.1.15,2013-01-03 02:55:00,
2013-01-02 22:00:00,20.2,18.0,29.41,South,190,4.0,4.0,91,0.00,,,0.00,Wunderground v.1.15,2013-01-03 03:00:00,
2013-01-02 22:09:00,20.1,17.9,29.41,South,188,3.0,3.0,91,0.00,,,0.00,Wunderground v.1.15,2013-01-03 03:09:00,
2013-01-02 22:14:00,20.0,17.8,29.40,South,186,3.0,9.0,91,0.00,,,0.00,Wunderground v.1.15,2013-01-03 03:14:00,
2013-01-02 22:19:00,20.0,17.8,29.41,SSW,192,3.0,9.0,91,0.00,,,0.00,Wunderground v.1.15,2013-01-03 03:19:00,
2013-01-02 22:25:00,19.9,17.7,29.41,South,184,4.0,9.0,91,0.00,,,0.00,Wunderground v.1.15,2013-01-03 03:25:00,
2013-01-02 22:35:00,19.7,17.5,29.41,South,175,4.0,9.0,91,0.00,,,0.00,Wunderground v.1.15,2013-01-03 03:35:00,
2013-01-02 22:50:00,19.7,17.5,29.41,South,178,2.0,2.0,91,0.00,,,0.00,Wunderground v.1.15,2013-01-03 03:50:00,
2013-01-02 22:55:00,19.6,17.4,29.41,South,178,2.0,8.0,91,0.00,,,0.00,Wunderground v.1.15,2013-01-03 03:55:00,
2013-01-02 23:00:00,19.5,17.0,29.41,SSW,192,3.0,9.0,90,0.00,,,0.00,Wunderground v.1.15,2013-01-03 04:00:00,
2013-01-02 23:05:00,19.4,17.2,29.41,SSW,193,5.0,9.0,91,0.00,,,0.00,Wunderground v.1.15,2013-01-03 04:05:00,
2013-01-02 23:10:00,19.4,16.9,29.41,SSW,194,4.0,9.0,90,0.00,,,0.00,Wunderground v.1.15,2013-01-03 04:10:00,
2013-01-02 23:15:00,19.3,16.8,29.41,South,180,4.0,9.0,90,0.00,,,0.00,Wunderground v.1.15,2013-01-03 04:15:00,
2013-01-02 23:20:00,18.9,16.5,29.41,South,184,5.0,5.0,90,0.00,,,0.00,Wunderground v.1.15,2013-01-03 04:20:00,
2013-01-02 23:29:00,18.6,16.2,29.41,South,187,4.0,9.0,90,0.00,,,0.00,Wunderground v.1.15,2013-01-03 04:29:00,
2013-01-02 23:34:00,18.6,16.2,29.41,SSW,192,5.0,9.0,90,0.00,,,0.00,Wunderground v.1.15,2013-01-03 04:34:00,
2013-01-02 23:39:00,18.6,16.2,29.41,SSW,210,7.0,12.0,90,0.00,,,0.00,Wunderground v.1.15,2013-01-03 04:39:00,
2013-01-02 23:44:00,18.5,16.1,29.41,SSW,192,7.0,12.0,90,0.00,,,0.00,Wunderground v.1.15,2013-01-03 04:44:00,
2013-01-02 23:49:00,18.4,16.0,29.41,South,174,5.0,9.0,90,0.00,,,0.00,Wunderground v.1.15,2013-01-03 04:49:00,